createdAt,value
2023-04-01T00:01:50.505Z,11.35
2023-04-01T00:04:17.834Z,11.47
2023-04-01T00:06:45.173Z,11.55
2023-04-01T00:09:12.438Z,11.48
2023-04-01T00:11:39.712Z,11.29
2023-04-01T00:14:06.986Z,11.33
2023-04-01T00:16:36.074Z,11.29
2023-04-01T00:19:03.440Z,11.28
2023-04-01T00:21:30.835Z,11.43
2023-04-01T00:23:58.669Z,11.38
2023-04-01T00:26:26.198Z,11.34
2023-04-01T00:28:53.871Z,11.38
2023-04-01T00:31:21.439Z,11.46
2023-04-01T00:33:50.472Z,11.37
2023-04-01T00:36:18.699Z,11.47
2023-04-01T00:38:46.761Z,11.40
2023-04-01T00:41:15.668Z,11.35
2023-04-01T00:43:43.006Z,11.36
2023-04-01T00:46:10.297Z,11.42
2023-04-01T00:48:39.782Z,11.47
2023-04-01T00:51:10.499Z,11.32
2023-04-01T00:53:40.220Z,11.42
2023-04-01T00:56:09.333Z,11.37
2023-04-01T00:58:40.214Z,11.17
2023-04-01T01:01:07.979Z,11.27
2023-04-01T01:03:35.344Z,11.20
2023-04-01T01:06:22.771Z,11.31
2023-04-01T01:09:08.402Z,11.14
2023-04-01T01:11:43.624Z,11.37
2023-04-01T01:14:16.605Z,11.35
2023-04-01T01:16:46.652Z,11.12
2023-04-01T01:19:23.707Z,11.37
2023-04-01T01:22:12.648Z,11.19
2023-04-01T01:24:55.413Z,11.19
2023-04-01T01:27:24.190Z,11.34
2023-04-01T01:30:09.009Z,11.28
2023-04-01T01:32:46.641Z,11.49
2023-04-01T01:35:18.719Z,11.52
2023-04-01T01:37:47.614Z,11.47
2023-04-01T01:40:16.876Z,11.45
2023-04-01T01:42:47.566Z,11.33
2023-04-01T01:45:18.742Z,11.26
2023-04-01T01:47:47.290Z,11.29
2023-04-01T01:50:15.696Z,11.20
2023-04-01T01:52:44.304Z,11.32
2023-04-01T01:55:26.170Z,11.26
2023-04-01T01:57:53.718Z,11.13
2023-04-01T02:00:21.692Z,11.39
2023-04-01T02:02:50.592Z,11.33
2023-04-01T02:05:18.868Z,11.14
2023-04-01T02:07:50.414Z,11.26
2023-04-01T02:10:18.076Z,11.29
2023-04-01T02:12:47.395Z,11.28
2023-04-01T02:15:15.891Z,11.33
2023-04-01T02:17:45.703Z,11.32
2023-04-01T02:20:15.810Z,11.19
2023-04-01T02:22:45.450Z,11.30
2023-04-01T02:25:15.491Z,11.39
2023-04-01T02:27:43.762Z,11.19
2023-04-01T02:30:11.630Z,11.35
2023-04-01T02:32:39.944Z,11.41
2023-04-01T02:35:08.066Z,11.28
2023-04-01T02:37:36.804Z,11.20
2023-04-01T02:40:08.464Z,11.23
2023-04-01T02:42:37.076Z,11.38
2023-04-01T02:45:04.567Z,11.22
2023-04-01T02:47:31.853Z,11.24
2023-04-01T02:49:59.693Z,11.29
2023-04-01T02:52:26.982Z,11.24
2023-04-01T02:54:54.764Z,11.32
2023-04-01T02:57:22.050Z,11.16
2023-04-01T02:59:50.870Z,11.25
2023-04-01T03:02:18.492Z,11.35
2023-04-01T03:04:46.640Z,11.32
2023-04-01T03:07:14.014Z,11.12
2023-04-01T03:09:41.710Z,11.21
2023-04-01T03:12:08.980Z,11.19
2023-04-01T03:14:36.233Z,11.23
2023-04-01T03:17:04.871Z,11.18
2023-04-01T03:19:32.141Z,11.24
2023-04-01T03:21:59.395Z,11.19
2023-04-01T03:24:26.626Z,11.25
2023-04-01T03:26:53.862Z,11.29
2023-04-01T03:29:21.149Z,11.23
2023-04-01T03:31:48.421Z,11.31
2023-04-01T03:34:16.989Z,10.98
2023-04-01T03:36:44.290Z,11.03
2023-04-01T03:39:11.550Z,11.24
2023-04-01T03:41:39.288Z,11.15
2023-04-01T03:44:06.755Z,11.23
2023-04-01T03:46:34.037Z,11.17
2023-04-01T03:49:01.300Z,11.16
2023-04-01T03:51:30.266Z,11.17
2023-04-01T03:53:57.552Z,11.16
2023-04-01T03:56:24.823Z,11.23
2023-04-01T03:58:52.079Z,11.35
2023-04-01T04:01:21.671Z,11.24
2023-04-01T04:03:50.199Z,11.14
2023-04-01T04:06:18.673Z,11.16
2023-04-01T04:08:47.254Z,11.11
2023-04-01T04:11:14.819Z,11.26
2023-04-01T04:13:42.129Z,11.26
2023-04-01T04:16:10.743Z,11.24
2023-04-01T04:18:38.068Z,11.25
2023-04-01T04:21:05.629Z,11.30
2023-04-01T04:23:34.466Z,11.27
2023-04-01T04:26:04.794Z,11.37
2023-04-01T04:28:32.142Z,11.16
2023-04-01T04:30:59.494Z,11.29
2023-04-01T04:33:27.193Z,11.21
2023-04-01T04:35:57.115Z,11.17
2023-04-01T04:38:24.425Z,11.19
2023-04-01T04:40:51.740Z,11.36
2023-04-01T04:43:20.781Z,11.31
2023-04-01T04:45:48.065Z,11.35
2023-04-01T04:48:19.299Z,11.29
2023-04-01T04:50:47.051Z,11.42
2023-04-01T04:53:14.803Z,11.45
2023-04-01T04:55:44.555Z,11.46
2023-04-01T04:58:11.883Z,11.26
2023-04-01T05:00:40.483Z,11.36
2023-04-01T05:03:07.829Z,11.14
2023-04-01T05:05:35.365Z,11.21
2023-04-01T05:08:02.661Z,11.23
2023-04-01T05:10:30.270Z,11.19
2023-04-01T05:12:57.514Z,11.33
2023-04-01T05:15:25.260Z,11.35
2023-04-01T05:17:53.883Z,11.19
2023-04-01T05:20:21.179Z,11.34
2023-04-01T05:22:48.430Z,11.30
2023-04-01T05:25:15.979Z,11.41
2023-04-01T05:27:43.572Z,11.41
2023-04-01T05:30:11.390Z,11.31
2023-04-01T05:32:38.671Z,11.41
2023-04-01T05:35:08.029Z,11.35
2023-04-01T05:37:35.641Z,11.28
2023-04-01T05:40:03.138Z,11.36
2023-04-01T05:42:30.545Z,11.34
2023-04-01T05:44:57.788Z,11.49
2023-04-01T05:47:25.420Z,11.56
2023-04-01T05:49:52.742Z,11.65
2023-04-01T05:52:21.325Z,11.64
2023-04-01T05:54:48.578Z,11.56
2023-04-01T05:57:15.915Z,11.54
2023-04-01T05:59:43.214Z,11.62
2023-04-01T06:02:10.952Z,11.40
2023-04-01T06:04:39.774Z,11.53
2023-04-01T06:07:12.324Z,11.65
2023-04-01T06:09:41.014Z,11.49
2023-04-01T06:12:18.509Z,11.59
2023-04-01T06:14:50.872Z,11.72
2023-04-01T06:17:27.090Z,11.64
2023-04-01T06:19:57.565Z,11.46
2023-04-01T06:22:31.465Z,11.61
2023-04-01T06:25:06.809Z,11.64
2023-04-01T06:27:42.414Z,11.60
2023-04-01T06:30:18.627Z,11.61
2023-04-01T06:32:54.251Z,11.61
2023-04-01T06:35:28.976Z,11.80
2023-04-01T06:38:15.647Z,11.95
2023-04-01T06:40:52.762Z,12.08
2023-04-01T06:43:24.810Z,11.93
2023-04-01T06:45:56.293Z,11.90
2023-04-01T06:48:32.350Z,12.18
2023-04-01T06:51:04.428Z,12.14
2023-04-01T06:53:36.958Z,12.24
2023-04-01T06:56:08.494Z,12.16
2023-04-01T06:58:38.130Z,12.31
2023-04-01T07:01:07.983Z,12.36
2023-04-01T07:03:36.970Z,12.31
2023-04-01T07:06:05.710Z,12.42
2023-04-01T07:08:35.674Z,12.41
2023-04-01T07:11:05.338Z,12.34
2023-04-01T07:13:36.904Z,12.45
2023-04-01T07:16:11.757Z,12.59
2023-04-01T07:18:42.265Z,12.49
2023-04-01T07:21:12.301Z,12.58
2023-04-01T07:23:41.100Z,12.57
2023-04-01T07:26:13.714Z,12.58
2023-04-01T07:28:45.841Z,12.29
2023-04-01T07:31:19.430Z,12.48
2023-04-01T07:33:52.851Z,12.45
2023-04-01T07:36:24.024Z,12.54
2023-04-01T07:39:01.153Z,12.44
2023-04-01T07:41:34.501Z,12.70
2023-04-01T07:44:07.280Z,12.76
2023-04-01T07:46:47.534Z,12.69
2023-04-01T07:49:17.639Z,12.58
2023-04-01T07:51:51.107Z,12.83
2023-04-01T07:54:24.670Z,12.86
2023-04-01T07:56:57.283Z,12.61
2023-04-01T07:59:30.148Z,12.62
2023-04-01T08:02:03.269Z,12.83
2023-04-01T08:04:39.302Z,12.63
2023-04-01T08:07:10.231Z,12.85
2023-04-01T08:09:42.851Z,12.91
2023-04-01T08:12:15.802Z,12.85
2023-04-01T08:14:49.231Z,12.77
2023-04-01T08:17:19.378Z,13.22
2023-04-01T08:19:53.102Z,13.35
2023-04-01T08:22:23.713Z,13.52
2023-04-01T08:24:51.628Z,13.69
2023-04-01T08:27:23.463Z,13.90
2023-04-01T08:29:55.044Z,13.55
2023-04-01T08:32:24.470Z,13.82
2023-04-01T08:34:57.213Z,14.12
2023-04-01T08:37:28.069Z,13.79
2023-04-01T08:39:59.017Z,13.70
2023-04-01T08:47:01.673Z,13.68
2023-04-01T08:49:46.391Z,13.74
2023-04-01T08:52:22.566Z,13.83
2023-04-01T08:55:06.473Z,13.73
2023-04-01T08:57:42.695Z,13.67
2023-04-01T09:00:16.619Z,13.81
2023-04-01T09:02:51.951Z,13.73
2023-04-01T09:05:25.344Z,13.79
2023-04-01T09:07:59.773Z,13.82
2023-04-01T09:10:43.997Z,13.86
2023-04-01T09:13:29.078Z,13.59
2023-04-01T09:16:05.697Z,13.59
2023-04-01T09:18:48.015Z,13.60
2023-04-01T09:21:23.380Z,13.56
2023-04-01T09:23:59.096Z,13.39
2023-04-01T09:26:35.382Z,13.42
2023-04-01T09:29:07.909Z,13.74
2023-04-01T09:31:44.728Z,13.64
2023-04-01T09:34:27.003Z,13.69
2023-04-01T09:37:02.436Z,13.62
2023-04-01T09:39:37.683Z,13.59
2023-04-01T09:42:27.846Z,13.62
2023-04-01T09:44:59.509Z,13.79
2023-04-01T09:47:37.719Z,13.85
2023-04-01T09:50:16.813Z,13.89
2023-04-01T09:52:49.231Z,14.27
2023-04-01T09:55:34.469Z,14.13
2023-04-01T09:58:20.451Z,14.10
2023-04-01T10:00:57.378Z,14.20
2023-04-01T10:03:38.728Z,13.97
2023-04-01T10:06:26.100Z,14.16
2023-04-01T10:09:24.751Z,13.91
2023-04-01T10:12:09.707Z,13.93
2023-04-01T10:14:59.084Z,13.81
2023-04-01T10:17:42.089Z,14.18
2023-04-01T10:20:14.216Z,14.11
2023-04-01T10:22:58.183Z,14.01
2023-04-01T10:25:40.338Z,13.88
2023-04-01T10:28:21.480Z,14.22
2023-04-01T10:31:07.487Z,14.08
2023-04-01T10:33:52.204Z,14.18
2023-04-01T10:36:37.925Z,14.08
2023-04-01T10:39:19.212Z,13.97
2023-04-01T10:42:05.225Z,14.07
2023-04-01T10:44:44.858Z,14.12
2023-04-01T10:47:32.671Z,13.95
2023-04-01T10:50:33.126Z,13.90
2023-04-01T10:53:16.217Z,13.73
2023-04-01T10:56:02.034Z,14.07
2023-04-01T10:58:40.518Z,14.23
2023-04-01T11:01:26.698Z,14.27
2023-04-01T11:04:17.735Z,14.43
2023-04-01T11:06:59.284Z,14.42
2023-04-01T11:09:46.388Z,14.51
2023-04-01T11:12:26.222Z,14.83
2023-04-01T11:15:05.434Z,15.23
2023-04-01T11:17:50.752Z,15.30
2023-04-01T11:20:31.316Z,15.51
2023-04-01T11:23:09.839Z,15.64
2023-04-01T11:25:57.165Z,15.81
2023-04-01T11:28:42.234Z,15.53
2023-04-01T11:31:27.477Z,15.11
2023-04-01T11:33:58.327Z,15.08
2023-04-01T11:36:34.943Z,15.39
2023-04-01T11:39:13.381Z,15.52
2023-04-01T11:41:43.464Z,15.90
2023-04-01T11:44:16.960Z,15.82
2023-04-01T11:46:50.648Z,15.60
2023-04-01T11:49:26.188Z,15.24
2023-04-01T11:52:02.478Z,15.17
2023-04-01T11:54:36.925Z,14.87
2023-04-01T11:57:09.689Z,14.60
2023-04-01T11:59:46.842Z,14.32
2023-04-01T12:02:18.725Z,14.58
2023-04-01T12:04:55.636Z,14.77
2023-04-01T12:07:32.900Z,15.25
2023-04-01T12:10:05.845Z,15.73
2023-04-01T12:12:38.225Z,15.92
2023-04-01T12:15:15.323Z,16.15
2023-04-01T12:17:47.238Z,16.17
2023-04-01T12:20:23.710Z,16.34
2023-04-01T12:22:55.238Z,15.79
2023-04-01T12:25:36.873Z,15.77
2023-04-01T12:28:08.285Z,15.34
2023-04-01T12:30:47.304Z,15.40
2023-04-01T12:33:33.240Z,15.41
2023-04-01T12:36:04.177Z,15.07
2023-04-01T12:38:37.934Z,15.00
2023-04-01T12:41:10.531Z,14.78
2023-04-01T12:43:56.651Z,14.79
2023-04-01T12:46:27.957Z,14.48
2023-04-01T12:49:04.512Z,14.36
2023-04-01T12:51:39.170Z,14.54
2023-04-01T12:54:33.731Z,14.81
2023-04-01T12:57:11.159Z,14.82
2023-04-01T12:59:46.422Z,14.99
2023-04-01T13:02:15.307Z,14.96
2023-04-01T13:04:57.918Z,15.27
2023-04-01T13:07:35.401Z,15.25
2023-04-01T13:10:06.706Z,15.48
2023-04-01T13:12:46.698Z,15.54
2023-04-01T13:15:22.356Z,15.69
2023-04-01T13:17:53.438Z,15.82
2023-04-01T13:20:26.942Z,16.03
2023-04-01T13:23:02.298Z,15.91
2023-04-01T13:25:37.153Z,15.90
2023-04-01T13:28:08.622Z,15.89
2023-04-01T13:30:39.448Z,15.73
2023-04-01T13:33:12.343Z,15.69
2023-04-01T13:35:45.710Z,15.42
2023-04-01T13:38:18.082Z,15.45
2023-04-01T13:41:02.103Z,15.65
2023-04-01T13:43:33.658Z,15.92
2023-04-01T13:46:29.152Z,15.75
2023-04-01T13:49:14.413Z,15.80
2023-04-01T13:51:53.728Z,15.70
2023-04-01T13:54:35.955Z,15.64
2023-04-01T13:57:13.677Z,15.82
2023-04-01T13:59:57.326Z,16.17
2023-04-01T14:02:32.903Z,16.32
2023-04-01T14:05:15.420Z,16.01
2023-04-01T14:07:51.806Z,16.07
2023-04-01T14:10:22.616Z,15.87
2023-04-01T14:12:53.596Z,15.46
2023-04-01T14:15:36.966Z,15.55
2023-04-01T14:18:15.818Z,15.24
2023-04-01T14:20:52.653Z,15.14
2023-04-01T14:23:33.526Z,15.31
2023-04-01T14:29:04.658Z,15.36
2023-04-01T14:31:41.884Z,15.53
2023-04-01T14:34:21.070Z,15.53
2023-04-01T14:37:14.001Z,15.59
2023-04-01T14:39:56.531Z,15.17
2023-04-01T14:42:37.388Z,15.03
2023-04-01T14:45:18.785Z,15.29
2023-04-01T14:47:50.548Z,15.36
2023-04-01T14:50:19.966Z,15.39
2023-04-01T14:52:51.497Z,15.22
2023-04-01T14:55:27.398Z,15.23
2023-04-01T14:58:06.455Z,15.07
2023-04-01T15:00:42.891Z,14.98
2023-04-01T15:03:16.982Z,15.13
2023-04-01T15:05:53.067Z,15.23
2023-04-01T15:08:22.798Z,15.24
2023-04-01T15:11:06.411Z,15.19
2023-04-01T15:13:45.582Z,15.13
2023-04-01T15:16:19.261Z,15.08
2023-04-01T15:18:53.972Z,15.12
2023-04-01T15:21:27.367Z,15.11
2023-04-01T15:23:59.998Z,14.75
2023-04-01T15:26:35.209Z,14.58
2023-04-01T15:29:29.365Z,14.61
2023-04-01T15:32:02.642Z,14.87
2023-04-01T15:34:36.240Z,14.73
2023-04-01T15:37:06.631Z,14.63
2023-04-01T15:39:42.149Z,14.57
2023-04-01T15:42:27.213Z,14.60
2023-04-01T15:45:00.966Z,14.49
2023-04-01T15:47:35.456Z,14.54
2023-04-01T15:50:25.795Z,14.34
2023-04-01T15:52:59.721Z,14.47
2023-04-01T15:55:32.191Z,14.58
2023-04-01T15:58:20.372Z,14.30
2023-04-01T16:00:52.119Z,14.36
2023-04-01T16:03:22.142Z,14.27
2023-04-01T16:05:57.395Z,14.14
2023-04-01T16:08:34.785Z,13.96
2023-04-01T16:11:10.744Z,14.03
2023-04-01T16:13:46.032Z,13.93
2023-04-01T16:16:19.144Z,14.10
2023-04-01T16:18:54.450Z,14.11
2023-04-01T16:21:34.922Z,14.18
2023-04-01T16:24:06.225Z,14.04
2023-04-01T16:26:37.622Z,13.96
2023-04-01T16:29:07.307Z,13.89
2023-04-01T16:31:36.802Z,13.81
2023-04-01T16:34:10.583Z,13.91
2023-04-01T16:36:44.178Z,13.84
2023-04-01T16:39:24.318Z,13.81
2023-04-01T16:41:57.046Z,13.93
2023-04-01T16:44:24.881Z,13.79
2023-04-01T16:46:53.089Z,13.73
2023-04-01T16:49:34.934Z,13.53
2023-04-01T16:52:15.718Z,13.30
2023-04-01T16:54:45.627Z,13.25
2023-04-01T16:57:25.086Z,13.41
2023-04-01T16:59:58.512Z,13.56
2023-04-01T17:02:27.072Z,13.47
2023-04-01T17:04:56.675Z,13.49
2023-04-01T17:07:32.385Z,13.57
2023-04-01T17:10:19.117Z,13.66
2023-04-01T17:12:52.791Z,13.63
2023-04-01T17:15:23.618Z,13.41
2023-04-01T17:17:56.542Z,13.35
2023-04-01T17:20:30.369Z,13.28
2023-04-01T17:23:02.737Z,13.43
2023-04-01T17:25:40.297Z,13.50
2023-04-01T17:28:14.275Z,13.56
2023-04-01T17:30:50.100Z,13.40
2023-04-01T17:33:25.915Z,13.31
2023-04-01T17:35:58.418Z,13.22
2023-04-01T17:38:38.019Z,13.13
2023-04-01T17:41:13.048Z,13.07
2023-04-01T17:43:46.565Z,13.18
2023-04-01T17:46:26.915Z,13.17
2023-04-01T17:49:00.119Z,13.14
2023-04-01T17:51:32.995Z,13.18
2023-04-01T17:54:10.776Z,13.19
2023-04-01T17:56:44.298Z,13.13
2023-04-01T17:59:18.207Z,12.95
2023-04-01T18:01:49.984Z,12.86
2023-04-01T18:04:29.195Z,12.84
2023-04-01T18:07:15.153Z,12.84
2023-04-01T18:09:50.531Z,12.74
2023-04-01T18:12:23.269Z,12.85
2023-04-01T18:14:56.558Z,12.77
2023-04-01T18:17:26.453Z,12.85
2023-04-01T18:20:01.518Z,12.82
2023-04-01T18:22:31.125Z,12.75
2023-04-01T18:25:03.473Z,12.85
2023-04-01T18:27:33.597Z,12.62
2023-04-01T18:30:03.572Z,12.60
2023-04-01T18:32:37.694Z,12.61
2023-04-01T18:35:16.808Z,12.62
2023-04-01T18:37:46.917Z,12.57
2023-04-01T18:40:19.044Z,12.50
2023-04-01T18:42:55.049Z,12.43
2023-04-01T18:45:24.616Z,12.46
2023-04-01T18:47:57.940Z,12.43
2023-04-01T18:50:29.390Z,12.35
2023-04-01T18:53:00.037Z,12.32
2023-04-01T18:55:36.804Z,12.32
2023-04-01T18:58:24.238Z,12.37
2023-04-01T19:00:56.652Z,12.26
2023-04-01T19:03:28.004Z,12.20
2023-04-01T19:05:57.655Z,12.15
2023-04-01T19:08:29.512Z,12.30
2023-04-01T19:11:08.499Z,12.19
2023-04-01T19:13:42.245Z,12.22
2023-04-01T19:16:14.935Z,12.20
2023-04-01T19:18:50.292Z,12.09
2023-04-01T19:21:20.729Z,12.06
2023-04-01T19:24:02.946Z,12.12
2023-04-01T19:26:35.924Z,12.02
2023-04-01T19:29:08.313Z,12.05
2023-04-01T19:31:39.564Z,12.03
2023-04-01T19:34:16.002Z,12.06
2023-04-01T19:36:48.158Z,11.89
2023-04-01T19:39:26.272Z,11.94
2023-04-01T19:41:58.509Z,11.89
2023-04-01T19:44:32.804Z,12.03
2023-04-01T19:47:04.288Z,11.89
2023-04-01T19:49:39.117Z,11.91
2023-04-01T19:52:11.888Z,11.90
2023-04-01T19:54:45.172Z,11.75
2023-04-01T19:57:18.712Z,11.73
2023-04-01T19:59:50.418Z,11.85
2023-04-01T20:02:39.348Z,11.86
2023-04-01T20:05:21.574Z,11.77
2023-04-01T20:07:53.597Z,11.83
2023-04-01T20:10:24.085Z,11.80
2023-04-01T20:12:59.334Z,11.86
2023-04-01T20:15:34.540Z,11.81
2023-04-01T20:18:04.602Z,11.79
2023-04-01T20:20:32.830Z,11.86
2023-04-01T20:23:26.325Z,11.86
2023-04-01T20:25:55.766Z,11.78
2023-04-01T20:28:27.422Z,11.79
2023-04-01T20:30:59.586Z,11.73
2023-04-01T20:33:35.968Z,11.74
2023-04-01T20:36:08.499Z,11.79
2023-04-01T20:39:05.786Z,11.68
2023-04-01T20:41:39.648Z,11.69
2023-04-01T20:44:11.938Z,11.75
2023-04-01T20:46:45.311Z,11.66
2023-04-01T20:49:32.169Z,11.63
2023-04-01T20:52:04.256Z,11.70
2023-04-01T20:54:46.476Z,11.70
2023-04-01T20:57:17.057Z,11.61
2023-04-01T20:59:54.149Z,11.69
2023-04-01T21:02:38.579Z,11.71
2023-04-01T21:05:26.465Z,11.73
2023-04-01T21:07:58.589Z,11.77
2023-04-01T21:10:40.674Z,11.73
2023-04-01T21:13:17.000Z,11.72
2023-04-01T21:15:51.666Z,11.86
2023-04-01T21:18:26.866Z,11.74
2023-04-01T21:21:07.975Z,11.75
2023-04-01T21:23:44.987Z,11.79
2023-04-01T21:26:24.063Z,11.70
2023-04-01T21:29:10.343Z,11.91
2023-04-01T21:31:53.657Z,11.91
2023-04-01T21:34:39.308Z,11.94
2023-04-01T21:37:14.209Z,11.78
2023-04-01T21:39:53.166Z,11.79
2023-04-01T21:42:26.178Z,11.76
2023-04-01T21:45:12.068Z,11.73
2023-04-01T21:48:01.108Z,11.80
2023-04-01T21:50:43.845Z,11.76
2023-04-01T21:53:26.629Z,11.62
2023-04-01T21:56:17.263Z,11.67
2023-04-01T21:59:00.148Z,11.56
2023-04-01T22:01:34.730Z,11.41
2023-04-01T22:04:12.946Z,11.48
2023-04-01T22:06:42.992Z,11.45
2023-04-01T22:09:14.483Z,11.39
2023-04-01T22:11:50.629Z,11.31
2023-04-01T22:14:22.353Z,11.31
2023-04-01T22:16:52.971Z,11.26
2023-04-01T22:19:26.586Z,11.23
2023-04-01T22:22:03.253Z,11.18
2023-04-01T22:24:35.793Z,11.02
2023-04-01T22:27:08.405Z,10.94
2023-04-01T22:29:42.880Z,10.99
2023-04-01T22:32:14.564Z,10.89
2023-04-01T22:34:49.529Z,10.92
2023-04-01T22:37:19.874Z,10.93
2023-04-01T22:39:59.348Z,10.88
2023-04-01T22:42:35.083Z,10.89
2023-04-01T22:45:08.808Z,10.78
2023-04-01T22:47:41.769Z,10.86
2023-04-01T22:50:14.101Z,10.74
2023-04-01T22:52:43.169Z,10.84
2023-04-01T22:55:12.376Z,10.83
2023-04-01T22:57:45.060Z,10.78
2023-04-01T23:00:16.041Z,10.71
2023-04-01T23:02:45.408Z,10.61
2023-04-01T23:05:16.799Z,10.51
2023-04-01T23:07:50.804Z,10.42
2023-04-01T23:10:21.827Z,10.28
2023-04-01T23:12:49.714Z,10.19
2023-04-01T23:15:18.247Z,10.13
2023-04-01T23:17:51.979Z,10.01
2023-04-01T23:20:25.807Z,9.98
2023-04-01T23:23:01.427Z,10.01
2023-04-01T23:25:35.115Z,9.99
2023-04-01T23:28:09.057Z,9.89
2023-04-01T23:30:49.849Z,9.92
2023-04-01T23:33:22.548Z,10.05
2023-04-01T23:35:52.011Z,10.16
2023-04-01T23:38:20.209Z,10.08
2023-04-01T23:40:49.332Z,9.97
2023-04-01T23:43:21.149Z,9.88
2023-04-01T23:45:48.422Z,9.84
2023-04-01T23:48:17.662Z,9.88
2023-04-01T23:50:46.088Z,9.91
2023-04-01T23:53:18.357Z,9.73
2023-04-01T23:55:45.945Z,9.71
2023-04-01T23:58:16.804Z,9.77
